createdAt,value
2018-06-02T00:04:47.485Z,97253.77
2018-06-02T00:09:40.775Z,97251.22
2018-06-02T00:14:34.076Z,97257.68
2018-06-02T00:19:27.521Z,97259.58
2018-06-02T00:24:20.841Z,97256.24
2018-06-02T00:29:14.526Z,97257.92
2018-06-02T00:34:07.818Z,97252.72
2018-06-02T00:39:01.158Z,97255.12
2018-06-02T00:43:54.570Z,97244.06
2018-06-02T00:53:40.471Z,97243.83
2018-06-02T00:58:33.766Z,97247.04
2018-06-02T01:03:27.058Z,97247.37
2018-06-02T01:08:21.109Z,97244.00
2018-06-02T01:13:14.401Z,97248.72
2018-06-02T01:18:07.687Z,97250.81
2018-06-02T01:23:01.778Z,97241.01
2018-06-02T01:27:55.940Z,97252.11
2018-06-02T01:32:49.327Z,97252.65
2018-06-02T01:37:42.669Z,97249.27
2018-06-02T01:42:35.997Z,97241.73
2018-06-02T01:47:29.303Z,97245.93
2018-06-02T01:52:23.371Z,97245.95
2018-06-02T01:57:16.657Z,97245.41
2018-06-02T02:02:09.959Z,97239.50
2018-06-02T02:07:04.011Z,97242.37
2018-06-02T02:11:57.304Z,97247.65
2018-06-02T02:16:50.590Z,97249.63
2018-06-02T02:21:43.898Z,97245.91
2018-06-02T02:26:37.174Z,97229.60
2018-06-02T02:31:30.545Z,97249.44
2018-06-02T02:36:24.577Z,97241.75
2018-06-02T02:41:17.877Z,97246.45
2018-06-02T02:46:11.168Z,97245.71
2018-06-02T02:51:04.543Z,97252.70
2018-06-02T02:55:57.839Z,97252.20
2018-06-02T03:00:52.322Z,97252.09
2018-06-02T03:05:45.613Z,97258.38
2018-06-02T03:10:38.912Z,97252.22
2018-06-02T03:15:33.592Z,97257.13
2018-06-02T03:20:26.964Z,97258.97
2018-06-02T03:25:20.280Z,97259.70
2018-06-02T03:30:14.338Z,97253.23
2018-06-02T03:35:07.625Z,97263.50
2018-06-02T03:40:00.923Z,97267.88
2018-06-02T03:44:54.972Z,97271.04
2018-06-02T03:49:49.043Z,97269.92
2018-06-02T03:54:42.399Z,97272.62
2018-06-02T03:59:35.661Z,97261.47
2018-06-02T04:04:28.940Z,97264.05
2018-06-02T04:09:22.997Z,97260.81
2018-06-02T04:14:17.814Z,97258.64
2018-06-02T04:19:11.109Z,97254.13
2018-06-02T04:24:04.390Z,97245.20
2018-06-02T04:28:57.701Z,97259.25
2018-06-02T04:33:50.999Z,97262.56
2018-06-02T04:38:45.156Z,97259.59
2018-06-02T04:43:39.209Z,97267.75
2018-06-02T04:48:32.509Z,97267.86
2018-06-02T04:53:26.557Z,97268.80
2018-06-02T04:58:19.848Z,97278.48
2018-06-02T05:03:13.453Z,97271.18
2018-06-02T05:08:06.755Z,97274.80
2018-06-02T05:13:00.041Z,97268.98
2018-06-02T05:17:54.097Z,97267.95
2018-06-02T05:22:47.366Z,97272.62
2018-06-02T05:27:40.709Z,97272.39
2018-06-02T05:32:33.990Z,97265.71
2018-06-02T05:37:27.289Z,97262.56
2018-06-02T05:42:20.577Z,97244.24
2018-06-02T05:47:13.881Z,97248.61
2018-06-02T05:52:07.153Z,97246.12
2018-06-02T05:57:00.475Z,97247.50
2018-06-02T06:01:53.849Z,97241.34
2018-06-02T06:06:47.186Z,97243.07
2018-06-02T06:11:40.465Z,97241.91
2018-06-02T06:16:34.900Z,97238.02
2018-06-02T06:21:28.937Z,97249.72
2018-06-02T06:26:22.236Z,97248.35
2018-06-02T06:31:15.524Z,97258.94
2018-06-02T06:36:08.805Z,97252.17
2018-06-02T06:41:03.020Z,97251.28
2018-06-02T06:45:57.081Z,97256.59
2018-06-02T06:50:50.363Z,97261.98
2018-06-02T06:55:43.652Z,97260.89
2018-06-02T07:00:36.936Z,97254.87
2018-06-02T07:05:30.222Z,97254.11
2018-06-02T07:10:23.490Z,97252.17
2018-06-02T07:15:17.558Z,97249.29
2018-06-02T07:20:10.857Z,97247.75
2018-06-02T07:25:04.152Z,97247.71
2018-06-02T07:29:58.241Z,97253.44
2018-06-02T07:34:51.529Z,97251.20
2018-06-02T07:39:45.590Z,97261.56
2018-06-02T07:44:38.889Z,97260.09
2018-06-02T07:49:32.173Z,97261.27
2018-06-02T07:54:26.232Z,97265.61
2018-06-02T07:59:19.527Z,97257.33
2018-06-02T08:04:12.814Z,97250.34
2018-06-02T08:09:06.136Z,97244.14
2018-06-02T08:13:59.428Z,97254.62
2018-06-02T08:18:52.739Z,97253.23
2018-06-02T08:23:46.057Z,97251.33
2018-06-02T08:28:39.344Z,97258.48
2018-06-02T08:33:33.544Z,97247.63
2018-06-02T08:38:26.763Z,97251.33
2018-06-02T08:43:20.077Z,97246.33
2018-06-02T08:48:13.363Z,97250.88
2018-06-02T08:53:06.763Z,97245.25
2018-06-02T08:58:00.175Z,97245.31
2018-06-02T09:02:57.000Z,97260.36
2018-06-02T09:07:50.284Z,97248.56
2018-06-02T09:12:43.638Z,97252.40
2018-06-02T09:17:36.926Z,97247.42
2018-06-02T09:22:30.280Z,97244.23
2018-06-02T09:27:24.376Z,97232.86
2018-06-02T09:32:17.713Z,97238.53
2018-06-02T09:37:10.998Z,97233.26
2018-06-02T09:42:04.285Z,97229.34
2018-06-02T09:46:57.569Z,97225.56
2018-06-02T09:51:50.881Z,97223.88
2018-06-02T09:56:44.167Z,97212.47
2018-06-02T10:08:37.095Z,97215.19
2018-06-02T10:13:30.370Z,97212.34
2018-06-02T10:18:23.657Z,97205.16
2018-06-02T10:23:16.954Z,97206.64
2018-06-02T10:28:10.266Z,97201.26
2018-06-02T10:33:04.333Z,97197.34
2018-06-02T10:37:57.617Z,97201.34
2018-06-02T10:42:50.897Z,97191.84
2018-06-02T10:47:44.192Z,97196.30
2018-06-02T10:52:37.492Z,97196.22
2018-06-02T10:57:30.808Z,97188.72
2018-06-02T11:02:24.124Z,97181.94
2018-06-02T11:07:18.186Z,97173.32
2018-06-02T11:12:11.453Z,97178.97
2018-06-02T11:17:04.771Z,97175.03
2018-06-02T11:21:58.841Z,97166.56
2018-06-02T11:26:52.378Z,97165.22
2018-06-02T11:31:45.680Z,97149.48
2018-06-02T11:36:38.997Z,97141.97
2018-06-02T11:41:32.350Z,97133.73
2018-06-02T11:46:25.641Z,97128.78
2018-06-02T11:51:18.924Z,97121.23
2018-06-02T11:56:12.236Z,97115.62
2018-06-02T12:01:05.539Z,97111.56
2018-06-02T12:05:58.815Z,97112.53
2018-06-02T12:10:52.093Z,97107.55
2018-06-02T12:15:45.385Z,97097.77
2018-06-02T12:20:38.724Z,97094.36
2018-06-02T12:25:32.005Z,97083.60
2018-06-02T12:30:25.396Z,97076.79
2018-06-02T12:35:18.887Z,97071.92
2018-06-02T12:40:12.201Z,97070.16
2018-06-02T12:45:05.474Z,97071.94
2018-06-02T12:49:58.773Z,97066.36
2018-06-02T12:54:52.096Z,97062.52
2018-06-02T12:59:45.389Z,97057.21
2018-06-02T13:04:39.843Z,97057.66
2018-06-02T13:09:33.910Z,97039.02
2018-06-02T13:14:27.238Z,97032.55
2018-06-02T13:19:20.535Z,97030.59
2018-06-02T13:24:13.853Z,97030.02
2018-06-02T13:29:07.133Z,97019.67
2018-06-02T13:34:00.451Z,97008.64
2018-06-02T13:38:53.736Z,97012.50
2018-06-02T13:43:47.026Z,97007.18
2018-06-02T13:48:40.337Z,97007.44
2018-06-02T13:53:33.668Z,97006.23
2018-06-02T13:58:26.954Z,96994.80
2018-06-02T14:03:21.085Z,96987.54
2018-06-02T14:08:14.377Z,96985.55
2018-06-02T14:13:07.657Z,96982.43
2018-06-02T14:18:00.954Z,96981.34
2018-06-02T14:22:55.110Z,96978.06
2018-06-02T14:27:48.414Z,96978.53
2018-06-02T14:32:41.700Z,96983.69
2018-06-02T14:37:36.714Z,96969.00
2018-06-02T14:42:30.027Z,96975.23
2018-06-02T14:47:23.333Z,96979.19
2018-06-02T14:52:16.674Z,96971.64
2018-06-02T14:57:09.960Z,96972.20
2018-06-02T15:02:03.247Z,96977.63
2018-06-02T15:06:56.546Z,96978.67
2018-06-02T15:11:49.868Z,96966.71
2018-06-02T15:16:43.929Z,96969.06
2018-06-02T15:21:37.260Z,96966.94
2018-06-02T15:26:30.577Z,96970.52
2018-06-02T15:31:23.976Z,96963.82
2018-06-02T15:36:17.978Z,96962.27
2018-06-02T15:41:14.435Z,96962.16
2018-06-02T15:46:07.890Z,96955.30
2018-06-02T15:51:01.239Z,96943.78
2018-06-02T15:55:54.557Z,96940.59
2018-06-02T16:00:47.899Z,96947.61
2018-06-02T16:05:41.121Z,96937.45
2018-06-02T16:10:34.442Z,96930.43
2018-06-02T16:15:27.741Z,96934.31
2018-06-02T16:20:21.032Z,96938.66
2018-06-02T16:25:14.421Z,96934.39
2018-06-02T16:30:07.706Z,96934.28
2018-06-02T16:35:01.022Z,96931.17
2018-06-02T16:39:54.321Z,96932.20
2018-06-02T16:44:47.609Z,96927.57
2018-06-02T16:49:40.906Z,96928.94
2018-06-02T16:54:34.241Z,96931.81
2018-06-02T16:59:27.580Z,96927.38
2018-06-02T17:04:20.861Z,96935.36
2018-06-02T17:09:14.232Z,96933.62
2018-06-02T17:14:07.604Z,96942.19
2018-06-02T17:19:01.702Z,96938.94
2018-06-02T17:23:54.986Z,96937.52
2018-06-02T17:28:48.285Z,96939.99
2018-06-02T17:33:42.341Z,96942.89
2018-06-02T17:38:35.658Z,96951.47
2018-06-02T17:43:29.745Z,96944.89
2018-06-02T17:48:23.814Z,96947.60
2018-06-02T17:53:17.456Z,96948.71
2018-06-02T17:58:10.742Z,96948.80
2018-06-02T18:03:04.058Z,96946.67
2018-06-02T18:07:57.348Z,96948.22
2018-06-02T18:12:50.625Z,96951.09
2018-06-02T18:17:43.910Z,96944.91
2018-06-02T18:22:37.193Z,96949.91
2018-06-02T18:27:30.531Z,96955.69
2018-06-02T18:32:23.811Z,96951.48
2018-06-02T18:37:17.112Z,96954.77
2018-06-02T18:42:11.688Z,96965.88
2018-06-02T18:47:04.987Z,96979.06
2018-06-02T18:51:58.273Z,96978.20
2018-06-02T18:56:51.551Z,96975.24
2018-06-02T19:01:44.888Z,96973.23
2018-06-02T19:06:38.182Z,96979.60
2018-06-02T19:11:31.468Z,96984.20
2018-06-02T19:16:24.777Z,96984.97
2018-06-02T19:21:18.838Z,97006.61
2018-06-02T19:26:12.146Z,97006.27
2018-06-02T19:31:06.226Z,97018.02
2018-06-02T19:35:59.760Z,97026.31
2018-06-02T19:40:53.074Z,97029.86
2018-06-02T19:45:46.338Z,97041.80
2018-06-02T19:50:39.691Z,97041.71
2018-06-02T19:55:34.001Z,97043.70
2018-06-02T20:00:27.283Z,97050.97
2018-06-02T20:05:20.591Z,97057.55
2018-06-02T20:10:13.900Z,97057.23
2018-06-02T20:15:07.956Z,97057.47
2018-06-02T20:20:01.290Z,97060.08
2018-06-02T20:24:54.586Z,97068.83
2018-06-02T20:29:47.871Z,97079.63
2018-06-02T20:34:41.363Z,97078.44
2018-06-02T20:39:34.636Z,97090.76
2018-06-02T20:44:27.946Z,97081.80
2018-06-02T20:49:21.280Z,97092.28
2018-06-02T20:54:14.575Z,97093.69
2018-06-02T20:59:07.873Z,97096.05
2018-06-02T21:04:01.185Z,97093.57
2018-06-02T21:08:56.090Z,97087.99
2018-06-02T21:13:50.151Z,97097.84
2018-06-02T21:18:43.469Z,97104.87
2018-06-02T21:23:37.532Z,97109.05
2018-06-02T21:28:30.885Z,97110.27
2018-06-02T21:33:24.170Z,97112.73
2018-06-02T21:38:17.492Z,97113.02
2018-06-02T21:43:11.534Z,97113.34
2018-06-02T21:48:04.831Z,97109.37
2018-06-02T21:52:58.110Z,97106.80
2018-06-02T21:57:51.423Z,97103.27
2018-06-02T22:02:45.461Z,97099.63
2018-06-02T22:07:38.779Z,97105.89
2018-06-02T22:12:32.065Z,97105.55
2018-06-02T22:17:25.365Z,97105.61
2018-06-02T22:22:19.426Z,97109.77
2018-06-02T22:27:12.746Z,97112.23
2018-06-02T22:32:06.017Z,97106.80
2018-06-02T22:36:59.346Z,97123.66
2018-06-02T22:41:52.642Z,97121.31
2018-06-02T22:46:45.929Z,97113.89
2018-06-02T22:51:57.641Z,97116.48
2018-06-02T22:56:51.838Z,97118.89
2018-06-02T23:01:45.166Z,97123.77
2018-06-02T23:06:38.462Z,97128.00
2018-06-02T23:11:31.764Z,97120.16
2018-06-02T23:16:25.115Z,97120.59
2018-06-02T23:21:18.445Z,97126.89
2018-06-02T23:26:11.743Z,97127.21
2018-06-02T23:31:05.037Z,97127.36
2018-06-02T23:35:58.333Z,97123.12
2018-06-02T23:40:51.618Z,97119.69
2018-06-02T23:45:44.915Z,97119.31
2018-06-02T23:50:38.198Z,97124.50
2018-06-02T23:55:31.512Z,97119.96
